Time;durP1;ratioP1;P1;durP2;ratioP2;P2;SDS_P1;SDS_P2;PMS_P1;PMS_P2;Temp;Humidity;BMP_temperature;BMP_pressure;BME280_temperature;BME280_humidity;BME280_pressure;Samples;Min_cycle;Max_cycle;Signal;HPM_P1;HPM_P2
2022/05/12 00:02:02;;;;;;;3.28;2.38;;;;;;;9.27;48.12;99339.00;4960136;28;20049;-77
2022/05/12 00:04:30;;;;;;;3.25;2.20;;;;;;;9.30;49.18;99337.94;4976220;28;20046;-77
2022/05/12 00:06:56;;;;;;;2.17;1.98;;;;;;;9.14;50.35;99323.06;4960148;28;20449;-78
2022/05/12 00:09:22;;;;;;;2.80;2.17;;;;;;;9.18;49.63;99324.53;4961084;28;20498;-77
2022/05/12 00:11:48;;;;;;;4.68;1.98;;;;;;;9.13;50.21;99325.84;4976362;28;20116;-77
2022/05/12 00:14:15;;;;;;;4.38;2.47;;;;;;;9.12;50.16;99334.81;4976544;28;20136;-77
2022/05/12 00:16:41;;;;;;;7.70;2.40;;;;;;;9.09;50.40;99333.22;4993836;28;20042;-77
2022/05/12 00:19:07;;;;;;;4.50;2.13;;;;;;;9.08;50.41;99320.00;4960159;28;20061;-77
2022/05/12 00:21:33;;;;;;;6.65;2.20;;;;;;;9.16;50.75;99336.28;4976075;28;20497;-77
2022/05/12 00:23:59;;;;;;;6.10;1.98;;;;;;;9.20;50.74;99348.41;4976174;28;20409;-77
2022/05/12 00:26:34;;;;;;;6.75;2.13;;;;;;;9.12;51.51;99356.13;4944583;28;20137;-78
2022/05/12 00:29:05;;;;;;;3.53;1.75;;;;;;;9.03;51.42;99362.13;4944655;28;20379;-77
2022/05/12 00:31:33;;;;;;;2.13;1.73;;;;;;;8.88;52.59;99348.13;4979313;28;20049;-77
2022/05/12 00:33:59;;;;;;;4.10;2.10;;;;;;;8.77;54.08;99362.25;4965014;28;20061;-77
2022/05/12 00:36:25;;;;;;;5.57;1.90;;;;;;;8.55;54.22;99362.06;4980947;28;20065;-78
2022/05/12 00:38:51;;;;;;;3.75;1.83;;;;;;;8.49;55.08;99353.53;4964175;28;20042;-77
2022/05/12 00:41:17;;;;;;;3.97;2.13;;;;;;;8.49;55.26;99353.53;4997338;28;20587;-77
2022/05/12 00:43:59;;;;;;;3.28;1.88;;;;;;;8.40;57.38;99356.88;4967158;28;20041;-77
2022/05/12 00:46:31;;;;;;;7.38;2.25;;;;;;;8.37;57.69;99353.53;4999772;28;20045;-77
2022/05/12 00:49:02;;;;;;;3.65;2.13;;;;;;;8.28;57.70;99345.25;4984085;28;20037;-77
2022/05/12 00:51:51;;;;;;;3.88;2.05;;;;;;;8.30;58.23;99358.44;4999768;28;20477;-77
2022/05/12 00:54:31;;;;;;;4.28;2.17;;;;;;;8.07;59.94;99348.56;4967919;28;20468;-78
2022/05/12 00:56:59;;;;;;;6.03;2.15;;;;;;;8.08;60.21;99352.91;4983309;28;20410;-77
2022/05/12 00:59:29;;;;;;;5.63;2.05;;;;;;;7.99;60.28;99349.09;4998928;28;20045;-77
2022/05/12 01:01:57;;;;;;;3.33;2.17;;;;;;;8.04;61.40;99352.28;4966553;28;20042;-80
2022/05/12 01:04:25;;;;;;;4.40;1.98;;;;;;;8.00;61.86;99343.66;5017088;28;20042;-79
2022/05/12 01:06:52;;;;;;;4.72;2.53;;;;;;;7.99;63.21;99357.06;4999396;28;20394;-77
2022/05/12 01:09:20;;;;;;;3.33;2.38;;;;;;;8.02;62.60;99355.06;4983133;28;20045;-78
2022/05/12 01:11:48;;;;;;;5.93;3.25;;;;;;;8.06;62.79;99357.50;4982497;28;20073;-77
2022/05/12 01:14:15;;;;;;;4.82;2.60;;;;;;;8.04;63.50;99360.25;4983280;28;20046;-77
2022/05/12 01:16:48;;;;;;;6.00;2.90;;;;;;;8.04;63.26;99353.13;4982575;28;20072;-76
2022/05/12 01:19:23;;;;;;;3.63;2.60;;;;;;;8.10;64.20;99361.66;4966735;28;20037;-77
2022/05/12 01:21:51;;;;;;;6.80;2.75;;;;;;;8.12;63.66;99365.91;4998951;28;20053;-77
2022/05/12 01:24:19;;;;;;;6.10;2.53;;;;;;;8.15;63.89;99365.69;4982913;28;20052;-78
2022/05/12 01:26:46;;;;;;;5.72;2.50;;;;;;;8.11;64.26;99342.91;4998755;28;20042;-77
2022/05/12 01:29:12;;;;;;;4.20;2.67;;;;;;;8.24;64.14;99359.75;4982332;28;20033;-77
2022/05/12 01:31:39;;;;;;;3.80;2.50;;;;;;;8.22;64.12;99345.66;4982795;28;20564;-78
2022/05/12 01:34:07;;;;;;;5.18;2.67;;;;;;;8.15;64.51;99344.38;4999018;28;20061;-78
2022/05/12 01:36:34;;;;;;;4.27;2.83;;;;;;;8.20;64.49;99347.59;4982376;28;20037;-78
2022/05/12 01:39:00;;;;;;;3.00;2.10;;;;;;;8.10;65.31;99349.19;4965840;28;20046;-78
2022/05/12 01:41:26;;;;;;;4.95;2.92;;;;;;;8.16;65.46;99327.47;4981867;28;20042;-78
2022/05/12 01:43:52;;;;;;;5.40;2.58;;;;;;;8.01;67.07;99324.06;4998431;28;20135;-77
2022/05/12 01:46:18;;;;;;;4.63;3.05;;;;;;;8.01;66.93;99332.06;4982332;28;20493;-78
2022/05/12 01:48:44;;;;;;;6.28;3.40;;;;;;;8.09;67.02;99312.03;4982270;28;20048;-79
2022/05/12 01:51:11;;;;;;;11.10;5.53;;;;;;;8.25;67.24;99329.47;4982226;28;20390;-78
2022/05/12 01:53:37;;;;;;;7.90;3.90;;;;;;;8.38;66.83;99313.50;4981542;28;20123;-77
2022/05/12 01:56:05;;;;;;;11.00;3.30;;;;;;;8.34;67.26;99314.66;4997964;28;20048;-78
2022/05/12 01:58:31;;;;;;;7.05;3.42;;;;;;;8.36;68.14;99315.41;4981534;28;20050;-77
2022/05/12 02:00:57;;;;;;;6.70;3.15;;;;;;;8.50;68.00;99317.97;4981883;28;20045;-79
2022/05/12 02:03:23;;;;;;;6.35;3.20;;;;;;;8.61;67.42;99314.50;4982001;28;20056;-78
2022/05/12 02:05:49;;;;;;;9.05;2.63;;;;;;;8.46;68.66;99305.84;4966158;28;20132;-79
2022/05/12 02:08:17;;;;;;;3.97;2.78;;;;;;;8.67;67.90;99313.22;4998268;28;20523;-80
2022/05/12 02:10:47;;;;;;;7.45;2.70;;;;;;;8.84;67.83;99307.53;4981718;28;20038;-78
2022/05/12 02:13:17;;;;;;;4.90;2.63;;;;;;;8.91;67.43;99306.13;4997712;28;20051;-78
2022/05/12 02:15:43;;;;;;;5.15;2.63;;;;;;;8.99;66.91;99300.22;4997893;28;20045;-79
2022/05/12 02:18:10;;;;;;;5.28;2.40;;;;;;;9.25;66.61;99314.25;4981539;28;20100;-78
2022/05/12 02:20:36;;;;;;;4.85;2.30;;;;;;;9.41;66.20;99319.28;4981736;28;20057;-79
2022/05/12 02:23:03;;;;;;;3.63;2.70;;;;;;;9.44;66.13;99319.03;5015461;28;20092;-78
2022/05/12 02:25:29;;;;;;;2.58;2.28;;;;;;;9.57;65.73;99310.97;4981212;28;20425;-77
2022/05/12 02:27:55;;;;;;;3.00;2.25;;;;;;;9.64;65.23;99301.53;5015359;28;20084;-77
2022/05/12 02:30:25;;;;;;;3.15;2.22;;;;;;;9.80;65.49;99310.03;4996988;28;20042;-78
2022/05/12 02:32:50;;;;;;;;;;;;;;;9.96;64.95;99307.03;4997084;28;20457;-78
2022/05/12 02:35:17;;;;;;;5.55;2.25;;;;;;;10.05;64.71;99297.47;4964739;28;19971;-78
2022/05/12 02:37:43;;;;;;;6.03;2.63;;;;;;;10.00;64.89;99296.97;4965226;28;20046;-78
2022/05/12 02:40:12;;;;;;;3.97;2.17;;;;;;;9.79;65.07;99281.66;4965161;28;20061;-80
2022/05/12 02:42:38;;;;;;;4.55;2.28;;;;;;;9.95;64.58;99284.81;4981068;28;20044;-79
2022/05/12 02:45:06;;;;;;;8.18;2.55;;;;;;;10.12;64.12;99277.31;4980886;28;20041;-79
2022/05/12 02:47:32;;;;;;;4.15;2.58;;;;;;;10.23;63.44;99269.31;4996702;28;20042;-80
2022/05/12 02:49:58;;;;;;;3.50;2.33;;;;;;;10.27;63.64;99268.13;4980544;28;20091;-78
2022/05/12 02:52:23;;;;;;;4.53;2.85;;;;;;;10.34;63.24;99273.78;4980758;28;20124;-77
2022/05/12 02:54:49;;;;;;;4.35;2.50;;;;;;;10.45;63.41;99280.00;4963997;28;20489;-79
2022/05/12 02:57:15;;;;;;;3.30;2.30;;;;;;;10.54;63.16;99280.22;4980776;28;20042;-78
2022/05/12 02:59:41;;;;;;;3.97;2.05;;;;;;;10.57;62.97;99264.81;5014336;28;20056;-77
2022/05/12 03:02:07;;;;;;;2.53;2.28;;;;;;;10.70;63.18;99267.31;4981405;28;20034;-78
2022/05/12 03:04:33;;;;;;;5.82;2.20;;;;;;;10.55;63.26;99279.25;4981275;28;20412;-78
2022/05/12 03:06:59;;;;;;;3.85;2.30;;;;;;;10.50;63.58;99270.75;4997302;28;20121;-78
2022/05/12 03:09:25;;;;;;;2.80;2.58;;;;;;;10.68;63.55;99277.25;4980275;28;20045;-79
2022/05/12 03:11:51;;;;;;;2.65;2.40;;;;;;;10.84;63.41;99269.72;4980125;28;20133;-78
2022/05/12 03:14:18;;;;;;;3.35;2.78;;;;;;;10.97;63.76;99261.50;5014054;28;20048;-79
2022/05/12 03:16:44;;;;;;;3.58;2.35;;;;;;;11.04;62.93;99260.03;4980057;28;20453;-78
2022/05/12 03:19:10;;;;;;;4.80;2.80;;;;;;;11.16;62.96;99269.69;4996185;28;20068;-79
2022/05/12 03:21:36;;;;;;;3.63;2.40;;;;;;;11.36;62.63;99267.19;4995926;28;20475;-78
2022/05/12 03:24:04;;;;;;;3.15;2.28;;;;;;;11.60;62.51;99261.56;4996368;28;20496;-77
2022/05/12 03:26:30;;;;;;;4.05;2.10;;;;;;;11.82;61.65;99252.53;4996075;28;20148;-78
2022/05/12 03:28:57;;;;;;;3.58;2.50;;;;;;;12.02;60.90;99248.16;5013568;28;20046;-77
2022/05/12 03:31:23;;;;;;;4.43;1.92;;;;;;;12.04;61.11;99259.59;4979928;28;20528;-79
2022/05/12 03:33:49;;;;;;;4.30;2.20;;;;;;;12.02;60.70;99257.03;4979381;28;20137;-78
2022/05/12 03:36:16;;;;;;;2.55;1.92;;;;;;;11.89;60.89;99251.91;4979515;28;20216;-79
2022/05/12 03:38:43;;;;;;;3.88;2.00;;;;;;;12.02;61.10;99257.03;4963368;28;20246;-78
2022/05/12 03:41:09;;;;;;;2.38;2.08;;;;;;;12.15;60.86;99246.94;4995801;28;20045;-78
2022/05/12 03:46:20;;;;;;;7.45;1.80;;;;;;;12.10;59.91;99210.81;4995898;28;20572;-78
2022/05/12 03:48:46;;;;;;;8.10;1.95;;;;;;;12.15;60.37;99246.09;4995414;28;20053;-79
2022/05/12 03:51:12;;;;;;;3.80;2.28;;;;;;;12.18;60.94;99250.31;4979470;28;20378;-78
2022/05/12 03:53:40;;;;;;;2.33;1.90;;;;;;;12.27;60.34;99255.75;4963067;28;20057;-77
2022/05/12 03:56:07;;;;;;;4.15;2.20;;;;;;;12.32;60.57;99263.38;4979176;28;20129;-77
2022/05/12 03:58:33;;;;;;;1.70;1.55;;;;;;;12.34;60.38;99245.31;4979661;28;20041;-79
2022/05/12 04:01:01;;;;;;;3.80;1.70;;;;;;;12.48;60.47;99249.44;4979323;28;20141;-78
2022/05/12 04:03:27;;;;;;;4.32;1.90;;;;;;;12.62;60.46;99260.63;4995905;28;20049;-86
2022/05/12 04:05:55;;;;;;;6.20;1.60;;;;;;;12.56;59.91;99238.88;4963454;28;20065;-82
2022/05/12 04:08:21;;;;;;;2.92;1.60;;;;;;;12.61;59.85;99242.84;4963322;28;20045;-84
2022/05/12 04:10:49;;;;;;;2.53;1.55;;;;;;;12.60;59.80;99240.31;4995838;28;20104;-84
2022/05/12 04:13:16;;;;;;;3.60;1.63;;;;;;;12.56;60.00;99229.03;5012905;28;20041;-81
2022/05/12 04:15:42;;;;;;;3.05;1.90;;;;;;;12.67;59.98;99219.13;4963920;28;20393;-80
2022/05/12 04:18:09;;;;;;;4.60;1.80;;;;;;;12.84;59.93;99232.72;4980365;28;20049;-85
2022/05/12 04:20:36;;;;;;;3.92;2.40;;;;;;;12.95;59.28;99238.94;5011834;28;20049;-77
2022/05/12 04:23:02;;;;;;;1.95;1.75;;;;;;;13.09;58.98;99235.84;5003222;28;20076;-87
2022/05/12 04:25:29;;;;;;;7.55;1.80;;;;;;;13.24;58.90;99236.28;4959932;28;20152;-83
2022/05/12 04:27:55;;;;;;;3.25;1.60;;;;;;;13.27;57.54;99222.56;4959977;28;20050;-78
2022/05/12 04:30:24;;;;;;;2.42;1.63;;;;;;;13.48;57.06;99235.84;4993034;28;20054;-78
2022/05/12 04:32:50;;;;;;;2.60;1.75;;;;;;;13.66;56.68;99220.69;4959715;28;20046;-81
2022/05/12 04:35:17;;;;;;;1.67;1.58;;;;;;;13.78;56.62;99227.56;4944732;28;20062;-78
2022/05/12 04:37:49;;;;;;;1.60;1.40;;;;;;;13.74;55.91;99212.72;4958808;28;20042;-82
2022/05/12 04:40:22;;;;;;;1.65;1.52;;;;;;;13.71;55.20;99209.50;4975672;28;20132;-80
2022/05/12 04:42:56;;;;;;;1.92;1.30;;;;;;;13.77;55.39;99217.81;4961304;28;20065;-92
2022/05/12 04:45:25;;;;;;;2.95;1.33;;;;;;;13.70;55.63;99211.34;4977063;28;20054;-84
2022/05/12 04:47:51;;;;;;;1.35;1.15;;;;;;;13.69;55.65;99196.22;4975751;28;20084;-95
2022/05/12 04:50:30;;;;;;;1.33;1.23;;;;;;;13.75;54.48;99184.88;4958969;28;20101;-80
2022/05/12 04:52:56;;;;;;;2.45;1.23;;;;;;;13.84;54.28;99201.94;4969687;28;20077;-79
2022/05/12 04:55:22;;;;;;;3.80;1.63;;;;;;;13.67;54.64;99195.50;4943001;28;20493;-82
2022/05/12 04:57:50;;;;;;;1.40;1.30;;;;;;;13.70;54.71;99191.69;4975176;28;20141;-79
2022/05/12 05:00:23;;;;;;;3.58;1.50;;;;;;;13.61;54.98;99193.38;4975657;28;20049;-78
2022/05/12 05:02:49;;;;;;;2.55;1.30;;;;;;;13.71;54.75;99171.88;4943482;28;20130;-82
2022/05/12 05:05:15;;;;;;;4.38;1.17;;;;;;;13.67;55.09;99176.69;4959552;28;20049;-88
2022/05/12 05:07:41;;;;;;;2.90;1.50;;;;;;;13.57;55.10;99179.41;4976703;28;20469;-82
2022/05/12 05:10:08;;;;;;;2.70;1.50;;;;;;;13.71;55.30;99183.47;4977862;28;20045;-81
2022/05/12 05:12:34;;;;;;;3.35;1.30;;;;;;;13.71;55.22;99175.41;4978476;28;20052;-87
2022/05/12 05:15:00;;;;;;;1.52;1.20;;;;;;;13.70;54.21;99176.41;4977768;28;20571;-80
2022/05/12 05:17:28;;;;;;;10.23;1.60;;;;;;;13.54;54.75;99155.56;5013796;28;20492;-78
2022/05/12 05:19:54;;;;;;;2.90;1.60;;;;;;;13.51;55.21;99176.47;4981698;28;20465;-78
2022/05/12 05:22:19;;;;;;;3.80;1.40;;;;;;;13.55;55.00;99170.66;5008904;28;20133;-79
2022/05/12 05:24:45;;;;;;;2.53;1.55;;;;;;;13.60;55.07;99175.59;4978478;28;20405;-80
2022/05/12 05:27:11;;;;;;;2.42;1.20;;;;;;;13.50;54.66;99170.25;4978743;28;20116;-79
2022/05/12 05:29:41;;;;;;;4.75;1.20;;;;;;;13.55;54.33;99145.66;4978449;28;20408;-80
2022/05/12 05:32:12;;;;;;;1.58;1.20;;;;;;;13.73;54.28;99143.88;4979078;28;20386;-84
2022/05/12 05:34:39;;;;;;;2.28;1.40;;;;;;;13.89;54.22;99147.78;4996376;28;20449;-92
2022/05/12 05:37:05;;;;;;;5.20;1.30;;;;;;;14.06;53.97;99166.63;4995582;28;20038;-78
2022/05/12 05:39:31;;;;;;;4.13;1.40;;;;;;;14.09;52.63;99168.19;4995732;28;20050;-81
2022/05/12 05:42:09;;;;;;;3.15;1.33;;;;;;;14.06;53.00;99173.84;4962371;28;20053;-78
2022/05/12 05:44:34;;;;;;;4.03;1.33;;;;;;;13.84;53.35;99162.50;4962582;28;20042;-80
2022/05/12 05:47:01;;;;;;;4.93;1.20;;;;;;;13.86;53.23;99159.66;4978375;28;20476;-81
2022/05/12 05:49:30;;;;;;;5.70;1.40;;;;;;;13.81;53.64;99168.16;4995243;28;20532;-83
2022/05/12 05:54:45;;;;;;;6.63;1.33;;;;;;;13.88;53.91;99163.06;4938754;29;20059;-84
2022/05/12 05:57:12;;;;;;;1.33;1.20;;;;;;;13.80;53.98;99168.31;4939206;29;20780;-79
2022/05/12 05:59:38;;;;;;;4.60;1.55;;;;;;;13.82;53.55;99159.09;4954651;29;20522;-81
2022/05/12 06:02:04;;;;;;;2.20;1.35;;;;;;;14.02;53.66;99169.75;4923264;29;20142;-83
2022/05/12 06:04:30;;;;;;;3.08;1.40;;;;;;;13.89;53.39;99169.28;4938995;29;20529;-79
2022/05/12 06:06:56;;;;;;;3.97;1.60;;;;;;;13.73;53.58;99154.63;4954232;29;20047;-79
2022/05/12 06:09:23;;;;;;;2.50;1.40;;;;;;;13.44;54.58;99162.78;4939163;29;20110;-80
2022/05/12 06:11:50;;;;;;;4.53;1.70;;;;;;;13.41;55.11;99159.53;4924216;29;20047;-84
2022/05/12 06:14:17;;;;;;;4.68;1.30;;;;;;;13.51;54.78;99155.84;4954725;29;20454;-79
2022/05/12 06:16:44;;;;;;;3.78;1.60;;;;;;;13.54;54.37;99165.41;4939001;29;20383;-79
2022/05/12 06:19:10;;;;;;;3.42;1.50;;;;;;;13.46;54.89;99141.13;4923004;29;20114;-79
2022/05/12 06:21:39;;;;;;;4.18;1.50;;;;;;;13.23;54.81;99154.03;4926532;28;20543;-79
2022/05/12 06:24:06;;;;;;;7.68;1.55;;;;;;;13.29;55.43;99157.03;4958187;28;20489;-80
2022/05/12 06:26:32;;;;;;;5.63;1.60;;;;;;;13.29;55.70;99146.28;4942924;28;20042;-80
2022/05/12 06:28:59;;;;;;;7.20;1.60;;;;;;;13.49;55.51;99146.22;4978334;28;20124;-81
2022/05/12 06:31:29;;;;;;;6.38;1.45;;;;;;;13.64;54.62;99139.38;4946265;28;20042;-79
2022/05/12 06:33:57;;;;;;;5.97;1.35;;;;;;;13.89;54.39;99131.66;4961403;28;21528;-79
2022/05/12 06:36:25;;;;;;;6.70;1.63;;;;;;;14.16;53.13;99134.31;4963912;28;20113;-80
2022/05/12 06:38:51;;;;;;;3.67;1.67;;;;;;;14.29;52.05;99126.75;4978173;28;20038;-80
2022/05/12 06:41:17;;;;;;;2.28;1.20;;;;;;;14.18;52.46;99132.34;4962503;28;20054;-81
2022/05/12 06:43:46;;;;;;;2.05;1.25;;;;;;;14.19;52.83;99127.81;4946406;28;20042;-80
2022/05/12 06:46:15;;;;;;;3.78;1.40;;;;;;;14.14;52.22;99117.53;4994621;28;20133;-83
2022/05/12 06:48:50;;;;;;;4.13;1.35;;;;;;;14.04;52.68;99119.41;4946549;28;20042;-81
2022/05/12 06:51:18;;;;;;;11.93;2.15;;;;;;;13.88;52.19;99105.75;4962397;28;20132;-82
2022/05/12 06:53:45;;;;;;;2.92;1.20;;;;;;;13.89;52.69;99110.16;4946433;28;20505;-81
2022/05/12 06:56:13;;;;;;;1.00;1.00;;;;;;;13.88;52.94;99103.06;4978497;28;20042;-83
2022/05/12 06:58:39;;;;;;;8.05;1.15;;;;;;;13.82;53.10;99100.00;4938246;29;20146;-83
2022/05/12 07:01:09;;;;;;;8.95;1.38;;;;;;;13.97;52.63;99107.56;4939758;29;20055;-82
2022/05/12 07:03:35;;;;;;;;;;;;;;;14.26;52.29;99115.47;4923063;29;20047;-78
2022/05/12 07:06:03;;;;;;;2.50;0.90;;;;;;;14.44;51.31;99104.69;4938202;29;19919;-81
2022/05/12 07:08:29;;;;;;;2.40;0.75;;;;;;;14.54;50.98;99094.75;4922855;29;20148;-82
2022/05/12 07:10:58;;;;;;;5.38;2.30;;;;;;;14.64;50.47;99100.91;4938208;29;20047;-82
2022/05/12 07:13:24;;;;;;;1.70;1.10;;;;;;;14.65;49.72;99082.91;4954803;29;20556;-82
2022/05/12 07:15:52;;;;;;;12.98;1.50;;;;;;;14.73;49.28;99083.81;4939610;29;20093;-82
2022/05/12 07:18:20;;;;;;;11.43;1.40;;;;;;;14.42;49.93;99069.06;4955755;29;20050;-82
2022/05/12 07:29:06;;;;;;;6.22;1.63;;;;;;;13.73;52.36;99055.25;4954363;29;20055;-82
2022/05/12 07:31:35;;;;;;;10.00;1.75;;;;;;;13.66;52.46;99066.72;4922643;29;20063;-82
2022/05/12 07:34:02;;;;;;;3.13;1.05;;;;;;;13.30;53.70;99054.00;4938312;29;20059;-82
2022/05/12 07:36:35;;;;;;;3.15;1.23;;;;;;;13.49;53.97;99036.13;4984201;28;20053;-81
2022/05/12 07:39:01;;;;;;;3.08;1.30;;;;;;;14.24;52.64;99050.22;4997238;28;20042;-82
2022/05/12 07:41:28;;;;;;;3.22;0.90;;;;;;;14.63;51.51;99039.16;4980714;28;20073;-80
2022/05/12 07:43:56;;;;;;;1.10;1.00;;;;;;;15.11;50.42;99030.59;4964457;28;20046;-82
2022/05/12 07:46:27;;;;;;;4.22;1.15;;;;;;;15.15;49.50;99034.66;4980876;28;20057;-80
2022/05/12 07:48:53;;;;;;;6.47;1.58;;;;;;;15.43;48.63;99035.31;4972909;28;20145;-81
2022/05/12 07:51:20;;;;;;;9.80;1.38;;;;;;;15.66;48.79;99034.78;4986316;28;20041;-80
2022/05/12 07:53:47;;;;;;;2.85;1.10;;;;;;;15.79;47.75;99029.75;4963495;28;20048;-80
2022/05/12 07:56:15;;;;;;;12.98;1.80;;;;;;;16.18;47.69;99021.94;4996283;28;20076;-78
2022/05/12 07:58:42;;;;;;;1.83;1.25;;;;;;;16.54;46.75;99007.28;4995649;28;20120;-80
2022/05/12 08:01:08;;;;;;;7.85;1.30;;;;;;;16.38;45.76;99021.63;4963545;28;20038;-80
2022/05/12 08:03:35;;;;;;;9.13;1.60;;;;;;;16.33;45.55;99018.59;4995873;28;20050;-83
2022/05/12 08:06:02;;;;;;;3.88;1.27;;;;;;;16.09;45.84;99004.03;4995457;28;20603;-80
2022/05/12 08:08:28;;;;;;;4.88;1.58;;;;;;;15.99;46.02;99000.69;5012930;28;20178;-79
2022/05/12 08:10:54;;;;;;;5.07;1.60;;;;;;;15.67;46.44;99013.03;4963162;28;20057;-79
2022/05/12 08:13:21;;;;;;;5.78;1.27;;;;;;;15.65;45.31;99012.38;4979312;28;20061;-80
2022/05/12 08:15:50;;;;;;;3.42;1.80;;;;;;;15.64;45.03;98999.84;4962819;28;20128;-80
2022/05/12 08:18:18;;;;;;;1.55;1.13;;;;;;;15.73;45.76;98993.53;4995409;28;20057;-81
2022/05/12 08:20:45;;;;;;;4.28;1.40;;;;;;;15.98;44.65;98983.66;4976345;28;20038;-81
2022/05/12 08:23:12;;;;;;;5.55;1.52;;;;;;;15.70;45.29;98991.16;5001867;28;20460;-80
2022/05/12 08:25:39;;;;;;;4.40;1.45;;;;;;;15.81;45.52;98973.00;4959684;28;20038;-80
2022/05/12 08:28:06;;;;;;;3.53;1.75;;;;;;;16.13;45.13;98975.72;4959850;28;20046;-80
2022/05/12 08:30:32;;;;;;;5.50;1.48;;;;;;;16.40;44.50;98971.88;4960267;28;20097;-81
2022/05/12 08:32:59;;;;;;;3.30;1.90;;;;;;;16.82;44.86;98965.47;4975973;28;20062;-78
2022/05/12 08:35:26;;;;;;;6.78;1.58;;;;;;;17.46;43.17;98962.72;4993575;28;20058;-80
2022/05/12 08:37:52;;;;;;;8.88;1.27;;;;;;;17.76;40.42;98935.91;4943822;28;20046;-84
2022/05/12 08:40:57;;;;;;;4.47;1.50;;;;;;;17.75;41.54;98934.16;4960174;28;20046;-83
2022/05/12 08:43:31;;;;;;;3.58;1.38;;;;;;;18.18;41.38;98920.03;4960955;28;20109;-83
2022/05/12 08:46:04;;;;;;;5.22;1.33;;;;;;;18.42;40.85;98912.72;4966187;28;20073;-81
2022/05/12 08:48:30;;;;;;;3.95;1.40;;;;;;;18.55;40.88;98893.16;4978216;28;20397;-80
2022/05/12 08:50:57;;;;;;;6.15;1.50;;;;;;;18.52;40.41;98916.00;4961892;28;20497;-79
2022/05/12 08:53:26;;;;;;;3.85;1.60;;;;;;;18.82;40.53;98913.34;4979708;28;20042;-76
2022/05/12 08:55:57;;;;;;;8.23;1.63;;;;;;;19.42;38.53;98923.13;4979638;28;20058;-77
2022/05/12 08:58:30;;;;;;;6.47;1.92;;;;;;;19.56;38.80;98919.56;4997437;28;20050;-76
2022/05/12 09:01:04;;;;;;;6.32;1.88;;;;;;;19.12;38.18;98906.06;4996662;28;20057;-81
2022/05/12 09:03:50;;;;;;;3.60;1.40;;;;;;;18.89;38.96;98911.59;4963893;28;20152;-88
2022/05/12 09:06:25;;;;;;;3.30;1.42;;;;;;;19.15;36.93;98900.28;4948619;28;20069;-84
2022/05/12 09:09:19;;;;;;;7.20;1.60;;;;;;;19.25;36.72;98900.81;4965239;28;20480;-83
2022/05/12 09:12:03;;;;;;;2.88;1.50;;;;;;;19.06;36.41;98885.97;4963115;28;20057;-84
2022/05/12 09:15:01;;;;;;;6.28;1.60;;;;;;;19.26;36.27;98880.00;4963192;28;20129;-80
2022/05/12 09:17:48;;;;;;;7.72;1.45;;;;;;;19.26;36.20;98859.16;4954345;28;20409;-86
2022/05/12 09:20:17;;;;;;;3.72;1.73;;;;;;;19.26;36.44;98869.16;4947546;28;20050;-83
2022/05/12 09:22:43;;;;;;;7.70;1.65;;;;;;;19.32;36.69;98871.09;4947917;28;20047;-83
2022/05/12 09:25:12;;;;;;;9.90;1.65;;;;;;;19.06;36.28;98882.44;4963990;28;20042;-91
2022/05/12 09:27:40;;;;;;;4.60;1.50;;;;;;;18.68;36.85;98858.97;4947559;28;20201;-84
2022/05/12 09:30:10;;;;;;;8.18;1.85;;;;;;;18.61;37.09;98871.56;4947597;28;20050;-84
2022/05/12 09:32:38;;;;;;;3.13;2.47;;;;;;;18.31;39.13;98846.34;4979205;28;20046;-84
2022/05/12 09:35:22;;;;;;;5.13;1.67;;;;;;;18.26;38.89;98824.41;4964311;28;20065;-84
2022/05/12 09:37:50;;;;;;;7.38;1.98;;;;;;;18.55;38.25;98820.91;4962166;28;20042;-86
2022/05/12 09:40:34;;;;;;;2.60;1.40;;;;;;;18.65;38.78;98817.91;4961621;28;20046;-86
2022/05/12 09:43:24;;;;;;;7.20;2.20;;;;;;;18.92;38.09;98808.31;4978468;28;20050;-87
2022/05/12 09:46:18;;;;;;;11.80;7.95;;;;;;;18.56;39.00;98814.44;4962667;28;20448;-86
2022/05/12 09:48:49;;;;;;;10.05;1.73;;;;;;;18.18;39.48;98819.09;4979046;28;20043;-88
2022/05/12 09:51:24;;;;;;;13.35;4.32;;;;;;;17.64;40.89;98784.03;4978716;28;20046;-86
2022/05/12 09:53:53;;;;;;;7.70;2.20;;;;;;;17.23;41.92;98782.50;4946197;28;20046;-87
2022/05/12 09:56:34;;;;;;;2.10;1.33;;;;;;;17.15;40.87;98777.16;4962059;28;20526;-85
2022/05/12 09:59:10;;;;;;;8.43;3.20;;;;;;;17.55;40.53;98772.47;4946005;28;20042;-86
2022/05/12 10:02:10;;;;;;;20.02;5.72;;;;;;;18.35;40.27;98752.09;4946544;28;20046;-86
2022/05/12 10:10:27;;;;;;;18.42;2.13;;;;;;;19.33;38.78;98745.38;4963240;28;20042;-87
2022/05/12 10:12:58;;;;;;;5.28;1.30;;;;;;;18.87;38.48;98743.84;4964463;28;20057;-86
2022/05/12 10:15:29;;;;;;;2.22;1.13;;;;;;;18.90;39.18;98732.66;4979267;28;20055;-85
2022/05/12 10:18:02;;;;;;;4.43;1.45;;;;;;;19.44;37.93;98731.31;4979263;28;20038;-85
2022/05/12 10:20:29;;;;;;;3.58;1.27;;;;;;;19.46;38.09;98723.84;4961827;28;20046;-85
2022/05/12 10:22:59;;;;;;;10.90;1.35;;;;;;;19.20;39.01;98746.09;4978073;28;20108;-85
2022/05/12 10:25:57;;;;;;;3.90;0.95;;;;;;;19.22;38.91;98735.06;4946453;28;20464;-85
2022/05/12 10:28:50;;;;;;;13.57;1.45;;;;;;;18.50;40.08;98709.63;4954383;28;20466;-86
2022/05/12 10:31:22;;;;;;;9.20;1.20;;;;;;;18.46;39.95;98730.00;4946011;28;20117;-86
2022/05/12 10:34:12;;;;;;;10.15;1.30;;;;;;;18.36;40.35;98729.47;4977902;28;20038;-85
2022/05/12 10:36:50;;;;;;;9.25;1.45;;;;;;;18.42;40.15;98716.00;4962746;28;20051;-84
2022/05/12 10:39:19;;;;;;;5.95;0.98;;;;;;;18.42;40.41;98716.00;4995430;28;20042;-85
2022/05/12 10:42:04;;;;;;;;;;;;;;;18.28;40.53;98702.47;4962750;28;20042;-83
2022/05/12 10:45:00;;;;;;;4.57;1.25;;;;;;;17.77;41.67;98700.50;4978108;28;19921;-85
2022/05/12 10:47:39;;;;;;;7.63;1.20;;;;;;;17.75;42.33;98707.09;4977765;28;20110;-85
2022/05/12 10:50:31;;;;;;;6.07;1.08;;;;;;;17.57;42.61;98700.19;4945528;28;20045;-84
2022/05/12 10:53:05;;;;;;;13.27;1.70;;;;;;;17.13;43.55;98695.47;4945948;28;20042;-86
2022/05/12 10:56:00;;;;;;;10.63;1.30;;;;;;;16.72;45.13;98701.09;4961524;28;20358;-86
2022/05/12 10:58:44;;;;;;;15.25;1.70;;;;;;;16.50;46.09;98691.94;4943888;28;20073;-85
2022/05/12 11:01:35;;;;;;;4.45;1.10;;;;;;;16.53;46.23;98669.19;4978589;28;20050;-84
2022/05/12 11:04:07;;;;;;;5.32;1.20;;;;;;;16.49;46.27;98673.25;4962957;28;20145;-84
2022/05/12 11:06:50;;;;;;;2.70;0.80;;;;;;;16.36;46.62;98676.53;4946515;28;20046;-84
2022/05/12 11:09:23;;;;;;;7.88;0.90;;;;;;;16.20;46.44;98677.44;4946611;28;20382;-86
2022/05/12 11:11:52;;;;;;;10.10;1.27;;;;;;;15.90;46.73;98652.09;4962413;28;20046;-84
2022/05/12 11:14:40;;;;;;;2.45;1.02;;;;;;;15.81;47.24;98663.09;4994362;28;20038;-85
2022/05/12 11:17:06;;;;;;;2.38;0.80;;;;;;;15.71;47.71;98680.28;4995382;28;20067;-84
2022/05/12 11:19:32;;;;;;;4.25;0.95;;;;;;;15.53;48.44;98680.47;4977009;28;20046;-84
2022/05/12 11:22:01;;;;;;;6.72;1.17;;;;;;;15.30;48.71;98677.59;4977146;28;20181;-86
2022/05/12 11:24:46;;;;;;;4.93;1.15;;;;;;;15.13;49.54;98680.47;4945377;28;20417;-84
2022/05/12 11:27:37;;;;;;;7.05;1.30;;;;;;;15.08;50.60;98678.28;4977559;28;20052;-80
2022/05/12 11:30:32;;;;;;;6.97;1.02;;;;;;;15.09;50.22;98674.59;4944691;28;20493;-83
2022/05/12 11:33:30;;;;;;;5.82;1.23;;;;;;;15.04;50.50;98679.63;4977157;28;20371;-86
2022/05/12 11:35:59;;;;;;;6.35;1.30;;;;;;;15.02;51.08;98668.19;4958410;28;20139;-86
2022/05/12 11:38:40;;;;;;;3.50;1.00;;;;;;;15.09;51.08;98689.91;4957738;28;20467;-82
2022/05/12 11:41:32;;;;;;;1.00;0.90;;;;;;;15.09;51.05;98657.59;4974927;28;20061;-82
2022/05/12 11:44:26;;;;;;;11.57;1.30;;;;;;;14.99;51.12;98658.59;4963151;28;20062;-85
2022/05/12 11:47:24;;;;;;;5.05;1.02;;;;;;;14.79;51.62;98657.25;4939482;28;20469;-85
2022/05/12 11:50:00;;;;;;;4.63;1.50;;;;;;;14.75;52.22;98662.13;4958914;28;20386;-84
2022/05/12 11:52:50;;;;;;;3.13;1.17;;;;;;;14.60;52.92;98657.56;4945876;28;20138;-83
2022/05/12 11:55:53;;;;;;;2.88;1.23;;;;;;;14.49;53.74;98655.97;4958521;28;20043;-84
2022/05/12 11:58:40;;;;;;;4.13;1.23;;;;;;;14.43;54.04;98662.84;4941940;28;20050;-80
2022/05/12 12:01:43;;;;;;;2.03;1.00;;;;;;;14.29;54.63;98667.03;4996844;28;20134;-83
2022/05/12 12:04:34;;;;;;;2.33;1.45;;;;;;;13.80;56.23;98666.81;4898873;29;20124;-82
2022/05/12 12:07:01;;;;;;;1.30;1.30;;;;;;;13.69;56.13;98663.53;4955869;28;20053;-81
2022/05/12 12:09:49;;;;;;;3.33;1.40;;;;;;;13.63;56.53;98662.34;4935285;29;20051;-85
2022/05/12 12:12:41;;;;;;;1.00;1.00;;;;;;;13.38;57.53;98704.28;4937423;29;20047;-77
2022/05/12 12:15:33;;;;;;;2.30;1.00;;;;;;;12.72;58.41;98712.72;4898688;29;20052;-81